Thunder radar more information blitzortung!


Radar de pluja more information rain snow radar


Visita la nostra xarxa de llocs de meteo:

Template documentation
and downloads

And another site



No particular awareness of the weather is required.    There are no Weather-warnings

Pagina Historial Weather Underground text

Diari Resum Novembre 24, 2017 Unitats:  Mètric    Imperial   Tant
« Previous Dia
SegĂźent Dia »
Diari Setmana Mensual Anual Personalitzada
  Maxima: Minima: Media:
Temperatura: 21.7 °C 7.4 °C 15.2 °C
Punt de rosada: 9.3 °C 2.1 °C 5 °C
Humitat: 81 % 41 % 51 %
Wind Speed: 11.1 km/h 0.0 km/h 3.1 km/h
RĂ fegues de vent: 11.1 km/h - -
Vent:- - SW
Pression baro: 1020.9 hPa 1015.8 hPa -
Precipitacions: 0.0 mm    
Historical Graphs
 
 
Dades de taula per Novembre 24, 2017
Temps Temperatura Punt de rosada Pression baro Vent Wind Speed RĂ fegues de vent Humitat Rainfall Rate (Hourly)
00:05 7.4 °C 2.1 °C 1018.8 hPa WSW 3.2 km/h 4.8 km/h 69 % 0.0 mm
00:09 9.1 °C 6.0 °C 1019.9 hPa WSW 3.9 km/h 3.9 km/h 81 % 0.0 mm
00:15 7.7 °C 2.4 °C 1018.8 hPa WSW 3.2 km/h 4.8 km/h 69 % 0.0 mm
00:25 7.6 °C 2.3 °C 1019.9 hPa WSW 3.2 km/h 4.8 km/h 69 % 0.0 mm
00:35 7.8 °C 2.4 °C 1019.9 hPa Calm   1.6 km/h 69 % 0.0 mm
00:45 8.5 °C 2.9 °C 1018.8 hPa North 1.6 km/h 3.2 km/h 68 % 0.0 mm
01:05 9.0 °C 3.0 °C 1019.9 hPa North 1.6 km/h 1.6 km/h 66 % 0.0 mm
01:15 9.0 °C 2.8 °C 1019.9 hPa Calm   3.2 km/h 65 % 0.0 mm
01:25 8.9 °C 2.7 °C 1019.9 hPa West 1.6 km/h 1.6 km/h 65 % 0.0 mm
01:35 8.8 °C 2.8 °C 1019.9 hPa WSW 1.6 km/h 1.6 km/h 66 % 0.0 mm
01:45 9.0 °C 2.8 °C 1019.9 hPa Calm   3.2 km/h 65 % 0.0 mm
01:55 9.0 °C 2.8 °C 1019.9 hPa NW 1.6 km/h 3.2 km/h 65 % 0.0 mm
02:05 9.1 °C 2.9 °C 1019.9 hPa NW 1.6 km/h 3.2 km/h 65 % 0.0 mm
02:15 9.2 °C 2.7 °C 1019.9 hPa Calm   1.6 km/h 64 % 0.0 mm
02:25 9.2 °C 2.9 °C 1019.9 hPa NW 1.6 km/h 3.2 km/h 65 % 0.0 mm
02:35 8.9 °C 2.9 °C 1019.9 hPa North 3.2 km/h 4.8 km/h 66 % 0.0 mm
02:45 8.9 °C 2.9 °C 1019.9 hPa NNE 1.6 km/h 3.2 km/h 66 % 0.0 mm
02:55 8.9 °C 2.9 °C 1018.8 hPa Calm   3.2 km/h 66 % 0.0 mm
03:05 8.9 °C 2.9 °C 1018.8 hPa NW 1.6 km/h 3.2 km/h 66 % 0.0 mm
03:35 9.4 °C 3.4 °C 1020.9 hPa SW 1.6 km/h 1.6 km/h 66 % 0.0 mm
03:45 9.8 °C 3.5 °C 1020.9 hPa Calm     65 % 0.0 mm
03:55 10.2 °C 3.7 °C 1019.9 hPa NNW 1.6 km/h 4.8 km/h 64 % 0.0 mm
04:05 10.5 °C 3.7 °C 1019.9 hPa NNE 1.6 km/h 1.6 km/h 63 % 0.0 mm
04:15 11.0 °C 4.2 °C 1020.9 hPa NNW 1.6 km/h 3.2 km/h 63 % 0.0 mm
04:25 11.6 °C 4.6 °C 1020.9 hPa North 1.6 km/h 3.2 km/h 62 % 0.0 mm
04:35 11.8 °C 5.2 °C 1020.9 hPa NNW 1.6 km/h 3.2 km/h 64 % 0.0 mm
10:38 12.1 °C 5.5 °C 1020.9 hPa Calm   2.3 km/h 64 % 0.0 mm
10:39 12.4 °C 5.8 °C 1020.9 hPa Calm   2.6 km/h 64 % 0.0 mm
10:44 12.4 °C 5.8 °C 1020.9 hPa SW 3.7 km/h 3.7 km/h 64 % 0.0 mm
10:49 12.6 °C 5.7 °C 1020.9 hPa SW 3.7 km/h   63 % 0.0 mm
10:54 12.9 °C 6.0 °C 1020.9 hPa SW 3.7 km/h 3.7 km/h 63 % 0.0 mm
10:59 13.0 °C 6.3 °C 1020.9 hPa SW 2.3 km/h 2.3 km/h 64 % 0.0 mm
11:04 13.2 °C 6.6 °C 1020.9 hPa SW 2.6 km/h 2.6 km/h 64 % 0.0 mm
11:09 13.5 °C 6.6 °C 1020.9 hPa Calm     63 % 0.0 mm
11:14 13.5 °C 6.6 °C 1020.9 hPa Calm     63 % 0.0 mm
11:19 13.5 °C 6.3 °C 1020.9 hPa Calm     62 % 0.0 mm
11:24 14.1 °C 7.2 °C 1020.9 hPa West 1.9 km/h 1.9 km/h 63 % 0.0 mm
11:29 14.5 °C 7.6 °C 1020.9 hPa NNE 1.9 km/h 1.9 km/h 63 % 0.0 mm
11:34 14.7 °C 7.3 °C 1020.9 hPa NNW 1.9 km/h 1.9 km/h 61 % 0.0 mm
11:39 15.2 °C 7.5 °C 1020.9 hPa West 1.9 km/h   60 % 0.0 mm
11:44 15.5 °C 7.8 °C 1020.9 hPa SW 1.9 km/h   60 % 0.0 mm
11:49 15.9 °C 7.9 °C 1020.9 hPa SW 1.9 km/h 1.9 km/h 59 % 0.0 mm
11:54 16.2 °C 7.9 °C 1020.9 hPa South 3.7 km/h 3.7 km/h 58 % 0.0 mm
11:59 16.3 °C 8.0 °C 1020.9 hPa SE 3.7 km/h 3.7 km/h 58 % 0.0 mm
12:04 16.2 °C 7.7 °C 1019.9 hPa ESE 3.2 km/h 3.2 km/h 57 % 0.0 mm
12:09 16.6 °C 8.1 °C 1019.9 hPa SSE 3.7 km/h 3.7 km/h 57 % 0.0 mm
12:14 16.5 °C 7.4 °C 1019.9 hPa SE 5.6 km/h 5.6 km/h 55 % 0.0 mm
12:19 16.6 °C 7.8 °C 1019.9 hPa ENE 5.6 km/h 5.6 km/h 56 % 0.0 mm
12:24 17.0 °C 8.2 °C 1019.9 hPa SW 3.7 km/h 3.7 km/h 56 % 0.0 mm
12:29 17.3 °C 8.4 °C 1019.9 hPa SW 5.6 km/h 5.6 km/h 56 % 0.0 mm
12:34 17.7 °C 8.6 °C 1018.8 hPa South 3.7 km/h 3.7 km/h 55 % 0.0 mm
12:44 18.4 °C 9.2 °C 1018.8 hPa ESE 3.7 km/h 3.7 km/h 55 % 0.0 mm
12:49 18.6 °C 8.8 °C 1019.9 hPa SE 5.0 km/h 5.0 km/h 53 % 0.0 mm
12:54 18.2 °C 8.4 °C 1019.9 hPa ENE 5.6 km/h 5.6 km/h 53 % 0.0 mm
12:59 18.3 °C 8.6 °C 1019.9 hPa SE 5.6 km/h 5.6 km/h 53 % 0.0 mm
13:04 18.2 °C 8.4 °C 1018.8 hPa NE 5.3 km/h 5.3 km/h 53 % 0.0 mm
13:09 18.2 °C 8.4 °C 1018.8 hPa ENE 7.4 km/h 7.4 km/h 53 % 0.0 mm
13:14 18.4 °C 8.7 °C 1018.8 hPa ENE 5.6 km/h 5.6 km/h 53 % 0.0 mm
13:19 18.7 °C 8.9 °C 1019.9 hPa ENE 4.2 km/h 4.2 km/h 53 % 0.0 mm
13:24 18.9 °C 8.8 °C 1019.9 hPa SE 4.2 km/h 4.2 km/h 52 % 0.0 mm
13:29 19.1 °C 8.7 °C 1019.9 hPa ESE 3.7 km/h 3.7 km/h 51 % 0.0 mm
13:34 19.2 °C 8.5 °C 1018.8 hPa East 5.6 km/h 5.6 km/h 50 % 0.0 mm
13:39 19.4 °C 8.4 °C 1018.8 hPa East 5.8 km/h 5.8 km/h 49 % 0.0 mm
13:44 19.5 °C 8.8 °C 1018.8 hPa ENE 3.9 km/h 3.9 km/h 50 % 0.0 mm
13:49 19.6 °C 8.6 °C 1018.8 hPa ESE 6.4 km/h 6.4 km/h 49 % 0.0 mm
13:54 19.6 °C 8.6 °C 1018.8 hPa ESE 5.6 km/h 5.6 km/h 49 % 0.0 mm
13:59 19.8 °C 8.8 °C 1018.8 hPa ESE 3.7 km/h 3.7 km/h 49 % 0.0 mm
14:04 20.0 °C 8.9 °C 1018.8 hPa NE 1.9 km/h   49 % 0.0 mm
14:09 20.0 °C 9.3 °C 1018.8 hPa WNW 5.6 km/h 5.6 km/h 50 % 0.0 mm
14:14 20.2 °C 9.2 °C 1018.8 hPa NNW 3.7 km/h 3.7 km/h 49 % 0.0 mm
14:19 20.4 °C 9.0 °C 1018.8 hPa SW 5.6 km/h 5.6 km/h 48 % 0.0 mm
14:29 20.7 °C 9.0 °C 1018.8 hPa WNW 7.4 km/h 7.4 km/h 47 % 0.0 mm
14:34 20.9 °C 8.8 °C 1018.8 hPa SW 5.6 km/h 5.6 km/h 46 % 0.0 mm
14:39 21.0 °C 8.6 °C 1018.8 hPa WNW 5.6 km/h 5.8 km/h 45 % 0.0 mm
14:44 21.1 °C 8.7 °C 1018.8 hPa SW 5.6 km/h 5.6 km/h 45 % 0.0 mm
14:49 21.4 °C 8.6 °C 1018.8 hPa SE 5.8 km/h 5.8 km/h 44 % 0.0 mm
14:54 21.6 °C 8.5 °C 1018.8 hPa NNW 5.6 km/h 5.6 km/h 43 % 0.0 mm
14:59 21.6 °C 8.5 °C 1018.8 hPa NNW 9.3 km/h 9.3 km/h 43 % 0.0 mm
15:04 21.7 °C 8.6 °C 1018.8 hPa West 11.1 km/h 11.1 km/h 43 % 0.0 mm
15:09 21.3 °C 7.9 °C 1018.8 hPa WNW 5.3 km/h 5.3 km/h 42 % 0.0 mm
15:14 21.1 °C 7.7 °C 1018.8 hPa West 7.4 km/h 7.4 km/h 42 % 0.0 mm
15:19 21.0 °C 7.2 °C 1018.8 hPa NW 4.7 km/h 4.7 km/h 41 % 0.0 mm
15:24 20.9 °C 7.5 °C 1018.8 hPa NW 3.7 km/h 3.7 km/h 42 % 0.0 mm
15:29 20.9 °C 7.5 °C 1018.8 hPa West 3.7 km/h 3.7 km/h 42 % 0.0 mm
15:34 20.8 °C 7.1 °C 1018.8 hPa SW 3.7 km/h 3.7 km/h 41 % 0.0 mm
15:39 20.7 °C 7.3 °C 1018.8 hPa West 5.6 km/h 5.6 km/h 42 % 0.0 mm
15:44 20.6 °C 6.9 °C 1018.8 hPa WNW 3.7 km/h 3.7 km/h 41 % 0.0 mm
15:49 20.5 °C 7.2 °C 1018.8 hPa WSW 5.6 km/h 5.6 km/h 42 % 0.0 mm
15:54 20.4 °C 6.7 °C 1018.8 hPa WNW 3.7 km/h 3.7 km/h 41 % 0.0 mm
15:59 20.2 °C 6.5 °C 1018.8 hPa WNW 5.6 km/h 5.6 km/h 41 % 0.0 mm
16:04 20.0 °C 6.3 °C 1018.8 hPa West 5.6 km/h 5.6 km/h 41 % 0.0 mm
16:09 20.0 °C 6.3 °C 1018.8 hPa West 5.6 km/h 5.6 km/h 41 % 0.0 mm
16:14 19.8 °C 6.5 °C 1018.8 hPa WSW 7.4 km/h 7.4 km/h 42 % 0.0 mm
16:19 19.7 °C 6.4 °C 1018.8 hPa West 7.4 km/h 7.4 km/h 42 % 0.0 mm
16:24 19.6 °C 6.3 °C 1018.8 hPa SW 4.2 km/h 4.2 km/h 42 % 0.0 mm
16:29 19.5 °C 6.2 °C 1018.8 hPa West 4.2 km/h 4.2 km/h 42 % 0.0 mm
16:34 19.5 °C 6.2 °C 1018.8 hPa West 3.7 km/h 3.7 km/h 42 % 0.0 mm
16:39 19.6 °C 6.3 °C 1018.8 hPa WNW 5.6 km/h 5.6 km/h 42 % 0.0 mm
16:44 19.7 °C 6.4 °C 1018.8 hPa WSW 10.0 km/h 10.0 km/h 42 % 0.0 mm
16:49 19.6 °C 6.3 °C 1018.8 hPa West 5.6 km/h 5.6 km/h 42 % 0.0 mm
16:54 19.4 °C 6.2 °C 1018.8 hPa West 5.3 km/h 5.3 km/h 42 % 0.0 mm
17:00 19.3 °C 6.1 °C 1018.8 hPa WSW 7.4 km/h 7.4 km/h 42 % 0.0 mm
17:04 19.2 °C 5.9 °C 1018.8 hPa West 3.7 km/h 3.7 km/h 42 % 0.0 mm
17:09 19.1 °C 5.9 °C 1018.8 hPa West 3.7 km/h 3.7 km/h 42 % 0.0 mm
17:14 18.9 °C 5.7 °C 1018.8 hPa West 3.7 km/h 3.7 km/h 42 % 0.0 mm
17:15 18.9 °C 5.7 °C 1018.8 hPa West 3.7 km/h 3.7 km/h 42 % 0.0 mm
17:20 18.9 °C 6.1 °C 1018.8 hPa WSW 5.6 km/h 5.6 km/h 43 % 0.0 mm
17:25 18.7 °C 5.5 °C 1018.8 hPa West 1.9 km/h   42 % 0.0 mm
17:30 18.6 °C 5.4 °C 1018.8 hPa West 1.4 km/h 2.6 km/h 42 % 0.0 mm
17:35 18.4 °C 5.6 °C 1018.8 hPa NW 3.7 km/h 3.7 km/h 43 % 0.0 mm
17:40 18.2 °C 5.1 °C 1018.8 hPa NW 1.9 km/h   42 % 0.0 mm
17:45 18.1 °C 5.0 °C 1018.8 hPa WNW 1.9 km/h   42 % 0.0 mm
17:47 18.0 °C 4.9 °C 1018.8 hPa West 1.9 km/h 1.9 km/h 42 % 0.0 mm
17:52 17.9 °C 5.1 °C 1018.8 hPa WNW 3.7 km/h 3.7 km/h 43 % 0.0 mm
17:57 17.8 °C 5.1 °C 1018.8 hPa Calm     43 % 0.0 mm
18:02 17.7 °C 4.9 °C 1018.8 hPa WSW 3.9 km/h   43 % 0.0 mm
18:07 17.6 °C 4.9 °C 1018.8 hPa Calm     43 % 0.0 mm
18:10 13.0 °C 3.1 °C 1018.8 hPa Calm   3.2 km/h 51 % 0.0 mm
18:12 17.6 °C 4.9 °C 1018.8 hPa West 1.9 km/h   43 % 0.0 mm
18:17 17.7 °C 4.9 °C 1018.8 hPa SW 3.7 km/h 3.7 km/h 43 % 0.0 mm
18:20 12.8 °C 2.9 °C 1017.8 hPa Calm   3.2 km/h 51 % 0.0 mm
18:22 17.6 °C 4.9 °C 1018.8 hPa WSW 1.9 km/h 1.9 km/h 43 % 0.0 mm
18:27 17.6 °C 4.9 °C 1018.8 hPa WSW 5.6 km/h 5.6 km/h 43 % 0.0 mm
18:30 12.6 °C 3.0 °C 1017.8 hPa Calm   3.2 km/h 52 % 0.0 mm
18:32 17.5 °C 4.8 °C 1018.8 hPa West 1.9 km/h   43 % 0.0 mm
18:37 17.1 °C 4.4 °C 1018.8 hPa WSW 3.7 km/h 3.7 km/h 43 % 0.0 mm
18:40 12.7 °C 3.1 °C 1018.8 hPa Calm   3.2 km/h 52 % 0.0 mm
18:42 16.8 °C 4.4 °C 1018.8 hPa WSW 3.7 km/h 3.7 km/h 44 % 0.0 mm
18:47 16.6 °C 4.3 °C 1018.8 hPa SW 6.4 km/h 6.4 km/h 44 % 0.0 mm
18:48 16.6 °C 4.3 °C 1018.8 hPa WSW 7.4 km/h 7.4 km/h 44 % 0.0 mm
18:50 12.8 °C 3.2 °C 1017.8 hPa Calm   1.6 km/h 52 % 0.0 mm
18:53 16.5 °C 4.5 °C 1018.8 hPa SW 5.3 km/h 5.3 km/h 45 % 0.0 mm
18:58 16.5 °C 4.5 °C 1018.8 hPa WSW 3.7 km/h 3.7 km/h 45 % 0.0 mm
19:00 12.7 °C 3.1 °C 1017.8 hPa Calm     52 % 0.0 mm
19:03 16.5 °C 4.5 °C 1018.8 hPa West 3.9 km/h 3.9 km/h 45 % 0.0 mm
19:08 16.5 °C 4.5 °C 1018.8 hPa West 1.9 km/h 1.9 km/h 45 % 0.0 mm
19:10 12.6 °C 3.0 °C 1017.8 hPa NE 1.6 km/h 1.6 km/h 52 % 0.0 mm
19:13 16.4 °C 4.4 °C 1018.8 hPa WNW 1.9 km/h   45 % 0.0 mm
19:18 16.3 °C 4.3 °C 1018.8 hPa Calm     45 % 0.0 mm
19:20 12.7 °C 3.3 °C 1017.8 hPa Calm   3.2 km/h 53 % 0.0 mm
19:23 16.2 °C 4.2 °C 1018.8 hPa West 1.9 km/h   45 % 0.0 mm
19:28 16.2 °C 4.2 °C 1018.8 hPa West 3.7 km/h 3.7 km/h 45 % 0.0 mm
19:30 12.7 °C 3.3 °C 1017.8 hPa Calm   3.2 km/h 53 % 0.0 mm
19:33 16.0 °C 4.1 °C 1018.8 hPa SW 3.9 km/h 3.9 km/h 45 % 0.0 mm
19:38 15.7 °C 3.8 °C 1018.8 hPa SW 5.0 km/h 5.0 km/h 45 % 0.0 mm
19:40 12.8 °C 3.4 °C 1016.8 hPa Calm   3.2 km/h 53 % 0.0 mm
19:43 15.3 °C 3.4 °C 1018.8 hPa SW 5.8 km/h 5.8 km/h 45 % 0.0 mm
19:48 15.3 °C 3.7 °C 1019.9 hPa West 3.7 km/h 4.2 km/h 46 % 0.0 mm
19:50 12.7 °C 3.3 °C 1016.8 hPa Calm   1.6 km/h 53 % 0.0 mm
19:53 15.8 °C 4.2 °C 1019.9 hPa West 5.6 km/h 5.6 km/h 46 % 0.0 mm
19:58 16.0 °C 4.4 °C 1019.9 hPa West 4.2 km/h 4.2 km/h 46 % 0.0 mm
20:00 12.6 °C 3.3 °C 1016.8 hPa NW 1.6 km/h 3.2 km/h 53 % 0.0 mm
20:03 16.1 °C 4.4 °C 1019.9 hPa West 3.7 km/h 3.9 km/h 46 % 0.0 mm
20:08 16.1 °C 4.4 °C 1019.9 hPa West 3.9 km/h 3.9 km/h 46 % 0.0 mm
20:10 12.6 °C 3.3 °C 1016.8 hPa Calm   1.6 km/h 53 % 0.0 mm
20:13 16.2 °C 4.6 °C 1019.9 hPa WSW 5.6 km/h 5.6 km/h 46 % 0.0 mm
20:18 16.2 °C 4.6 °C 1019.9 hPa West 5.6 km/h 5.6 km/h 46 % 0.0 mm
20:20 12.2 °C 2.9 °C 1017.8 hPa NW 1.6 km/h 3.2 km/h 53 % 0.0 mm
20:23 16.3 °C 4.7 °C 1019.9 hPa WSW 5.6 km/h 5.6 km/h 46 % 0.0 mm
20:28 16.3 °C 4.7 °C 1019.9 hPa West 7.4 km/h 7.4 km/h 46 % 0.0 mm
20:30 12.2 °C 2.9 °C 1017.8 hPa West 1.6 km/h 3.2 km/h 53 % 0.0 mm
20:33 16.3 °C 4.7 °C 1018.8 hPa WSW 5.6 km/h 5.6 km/h 46 % 0.0 mm
20:38 16.2 °C 4.6 °C 1018.8 hPa West 7.4 km/h 7.4 km/h 46 % 0.0 mm
20:40 12.2 °C 2.9 °C 1017.8 hPa WNW 1.6 km/h 1.6 km/h 53 % 0.0 mm
20:43 16.3 °C 4.7 °C 1018.8 hPa West 7.4 km/h 7.4 km/h 46 % 0.0 mm
20:48 16.2 °C 4.6 °C 1019.9 hPa West 5.6 km/h 5.6 km/h 46 % 0.0 mm
20:50 11.6 °C 2.6 °C 1017.8 hPa WNW 1.6 km/h 3.2 km/h 54 % 0.0 mm
20:53 16.1 °C 4.4 °C 1019.9 hPa West 5.6 km/h 5.6 km/h 46 % 0.0 mm
20:58 15.9 °C 4.3 °C 1019.9 hPa SW 3.7 km/h 3.7 km/h 46 % 0.0 mm
21:00 11.6 °C 2.6 °C 1017.8 hPa Calm   1.6 km/h 54 % 0.0 mm
21:03 15.8 °C 4.2 °C 1019.9 hPa WSW 5.6 km/h 5.6 km/h 46 % 0.0 mm
21:08 15.7 °C 4.1 °C 1019.9 hPa WSW 5.6 km/h 5.6 km/h 46 % 0.0 mm
21:10 11.7 °C 2.9 °C 1017.8 hPa Calm     55 % 0.0 mm
21:13 15.7 °C 4.1 °C 1019.9 hPa West 5.3 km/h 5.3 km/h 46 % 0.0 mm
21:19 15.7 °C 4.1 °C 1019.9 hPa SW 3.7 km/h 3.7 km/h 46 % 0.0 mm
21:20 11.7 °C 2.9 °C 1017.8 hPa WSW 1.6 km/h 3.2 km/h 55 % 0.0 mm
21:24 15.8 °C 4.2 °C 1019.9 hPa West 3.7 km/h 3.7 km/h 46 % 0.0 mm
21:29 15.3 °C 3.7 °C 1019.9 hPa SW 5.6 km/h 5.6 km/h 46 % 0.0 mm
21:30 11.3 °C 2.6 °C 1017.8 hPa Calm   3.2 km/h 55 % 0.0 mm
21:34 14.9 °C 3.4 °C 1019.9 hPa WSW 3.7 km/h 3.7 km/h 46 % 0.0 mm
21:39 14.9 °C 3.4 °C 1019.9 hPa WSW 3.7 km/h 3.7 km/h 46 % 0.0 mm
21:40 11.2 °C 2.7 °C 1017.8 hPa NE 1.6 km/h 3.2 km/h 56 % 0.0 mm
21:44 14.9 °C 3.4 °C 1019.9 hPa SW 3.7 km/h 3.7 km/h 46 % 0.0 mm
21:49 14.9 °C 3.4 °C 1019.9 hPa SW 3.7 km/h 3.7 km/h 46 % 0.0 mm
21:50 10.9 °C 2.4 °C 1016.8 hPa Calm   1.6 km/h 56 % 0.0 mm
21:54 14.8 °C 3.6 °C 1019.9 hPa Calm     47 % 0.0 mm
21:59 14.6 °C 3.4 °C 1019.9 hPa Calm     47 % 0.0 mm
22:00 10.7 °C 2.5 °C 1016.8 hPa Calm     57 % 0.0 mm
22:04 14.6 °C 3.4 °C 1019.9 hPa SW 3.7 km/h 3.7 km/h 47 % 0.0 mm
22:09 14.7 °C 3.5 °C 1019.9 hPa WSW 3.7 km/h 3.7 km/h 47 % 0.0 mm
22:10 10.6 °C 2.7 °C 1016.8 hPa Calm   1.6 km/h 58 % 0.0 mm
22:14 14.6 °C 3.4 °C 1019.9 hPa Calm     47 % 0.0 mm
22:19 14.7 °C 3.5 °C 1019.9 hPa West 1.9 km/h 2.3 km/h 47 % 0.0 mm
22:20 10.4 °C 2.7 °C 1016.8 hPa North 1.6 km/h 1.6 km/h 59 % 0.0 mm
22:24 15.1 °C 3.8 °C 1019.9 hPa WSW 3.9 km/h 3.9 km/h 47 % 0.0 mm
22:29 15.3 °C 4.1 °C 1019.9 hPa WSW 3.7 km/h 3.9 km/h 47 % 0.0 mm
22:30 10.0 °C 2.3 °C 1016.8 hPa Calm   3.2 km/h 59 % 0.0 mm
22:34 15.2 °C 3.9 °C 1019.9 hPa WSW 2.6 km/h 2.6 km/h 47 % 0.0 mm
22:39 15.1 °C 3.8 °C 1019.9 hPa Calm     47 % 0.0 mm
22:40 9.8 °C 2.4 °C 1016.8 hPa Calm     60 % 0.0 mm
22:44 14.9 °C 3.7 °C 1019.9 hPa West 2.3 km/h   47 % 0.0 mm
22:49 14.6 °C 3.7 °C 1018.8 hPa Calm     48 % 0.0 mm
22:50 9.6 °C 2.2 °C 1016.8 hPa Calm     60 % 0.0 mm
22:54 14.3 °C 3.4 °C 1018.8 hPa Calm     48 % 0.0 mm
22:59 14.0 °C 3.2 °C 1018.8 hPa Calm     48 % 0.0 mm
23:00 9.8 °C 2.4 °C 1016.8 hPa SSW 1.6 km/h 1.6 km/h 60 % 0.0 mm
23:04 13.7 °C 2.9 °C 1018.8 hPa NNW 3.7 km/h 3.7 km/h 48 % 0.0 mm
23:09 13.4 °C 2.9 °C 1018.8 hPa NNW 3.7 km/h 3.7 km/h 49 % 0.0 mm
23:10 9.6 °C 2.4 °C 1016.8 hPa Calm   1.6 km/h 61 % 0.0 mm
23:14 13.7 °C 3.2 °C 1018.8 hPa NNW 1.9 km/h 1.9 km/h 49 % 0.0 mm
23:19 13.8 °C 3.3 °C 1018.8 hPa West 3.7 km/h 3.7 km/h 49 % 0.0 mm
23:20 9.8 °C 2.8 °C 1016.8 hPa Calm   1.6 km/h 62 % 0.0 mm
23:24 13.4 °C 2.9 °C 1018.8 hPa WSW 3.7 km/h 3.7 km/h 49 % 0.0 mm
23:29 13.2 °C 2.7 °C 1018.8 hPa NNW 3.7 km/h 3.7 km/h 49 % 0.0 mm
23:30 9.6 °C 2.7 °C 1016.8 hPa NW 1.6 km/h 3.2 km/h 62 % 0.0 mm
23:34 13.2 °C 3.0 °C 1018.8 hPa NNW 1.9 km/h 1.9 km/h 50 % 0.0 mm
23:39 13.1 °C 2.9 °C 1018.8 hPa Calm     50 % 0.0 mm
23:40 9.6 °C 2.7 °C 1015.8 hPa ENE 3.2 km/h 3.2 km/h 62 % 0.0 mm
23:44 13.2 °C 3.0 °C 1018.8 hPa Calm     50 % 0.0 mm
23:49 13.2 °C 3.0 °C 1018.8 hPa Calm     50 % 0.0 mm
23:50 9.6 °C 2.9 °C 1015.8 hPa Calm   1.6 km/h 63 % 0.0 mm
23:54 13.2 °C 3.0 °C 1018.8 hPa Calm     50 % 0.0 mm
Meteo Sesrovires
Elogis d' Weather Underground - 3.75 mb

Guio original per  Jim McMurry - jmcmurry@mwt.net Adaptat per a la plantilla per  Wim van der Kuil - Leuven-Template.eu

Trobareu la nostra informacio del temps tambe a:

Weather Underground

AWEKAS